sensor_id;sensor_type;location;lat;lon;timestamp;pressure;altitude;pressure_sealevel;temperature;humidity
59170;BME280;52474;52.236;5.114;2022-08-21T00:01:24;101755.47;;;13.45;100.00
59170;BME280;52474;52.236;5.114;2022-08-21T00:03:50;101760.34;;;13.40;100.00
59170;BME280;52474;52.236;5.114;2022-08-21T00:06:16;101756.00;;;13.39;100.00
59170;BME280;52474;52.236;5.114;2022-08-21T00:08:42;101747.03;;;13.40;100.00
59170;BME280;52474;52.236;5.114;2022-08-21T00:11:08;101749.59;;;13.42;100.00
59170;BME280;52474;52.236;5.114;2022-08-21T00:13:34;101740.63;;;13.43;100.00
59170;BME280;52474;52.236;5.114;2022-08-21T00:15:59;101734.00;;;13.37;100.00
59170;BME280;52474;52.236;5.114;2022-08-21T00:18:25;101741.72;;;13.40;100.00
59170;BME280;52474;52.236;5.114;2022-08-21T00:20:51;101740.88;;;13.40;100.00
59170;BME280;52474;52.236;5.114;2022-08-21T00:23:16;101744.75;;;13.36;100.00
59170;BME280;52474;52.236;5.114;2022-08-21T00:25:42;101739.59;;;13.34;100.00
59170;BME280;52474;52.236;5.114;2022-08-21T00:28:08;101741.06;;;13.27;100.00
59170;BME280;52474;52.236;5.114;2022-08-21T00:30:34;101728.22;;;13.21;100.00
59170;BME280;52474;52.236;5.114;2022-08-21T00:33:00;101734.25;;;13.23;100.00
59170;BME280;52474;52.236;5.114;2022-08-21T00:35:30;101729.66;;;13.25;100.00
59170;BME280;52474;52.236;5.114;2022-08-21T00:37:56;101718.56;;;13.20;100.00
59170;BME280;52474;52.236;5.114;2022-08-21T00:40:34;101731.00;;;13.30;100.00
59170;BME280;52474;52.236;5.114;2022-08-21T00:43:02;101732.69;;;13.31;100.00
59170;BME280;52474;52.236;5.114;2022-08-21T00:45:28;101733.06;;;13.27;100.00
59170;BME280;52474;52.236;5.114;2022-08-21T00:47:55;101734.50;;;13.31;100.00
59170;BME280;52474;52.236;5.114;2022-08-21T00:50:21;101733.06;;;13.27;100.00
59170;BME280;52474;52.236;5.114;2022-08-21T00:52:49;101731.09;;;13.29;100.00
59170;BME280;52474;52.236;5.114;2022-08-21T00:55:15;101726.41;;;13.32;100.00
59170;BME280;52474;52.236;5.114;2022-08-21T00:57:42;101729.31;;;13.29;100.00
59170;BME280;52474;52.236;5.114;2022-08-21T01:00:11;101728.22;;;13.32;100.00
59170;BME280;52474;52.236;5.114;2022-08-21T01:02:38;101730.72;;;13.34;100.00
59170;BME280;52474;52.236;5.114;2022-08-21T01:05:04;101735.09;;;13.35;100.00
59170;BME280;52474;52.236;5.114;2022-08-21T01:07:29;101735.09;;;13.35;100.00
59170;BME280;52474;52.236;5.114;2022-08-21T01:09:55;101726.66;;;13.29;100.00
59170;BME280;52474;52.236;5.114;2022-08-21T01:12:21;101727.13;;;13.23;100.00
59170;BME280;52474;52.236;5.114;2022-08-21T01:14:47;101731.84;;;13.20;100.00
59170;BME280;52474;52.236;5.114;2022-08-21T01:17:13;101730.28;;;13.17;100.00
59170;BME280;52474;52.236;5.114;2022-08-21T01:19:40;101732.09;;;13.17;100.00
59170;BME280;52474;52.236;5.114;2022-08-21T01:22:06;101726.75;;;13.17;100.00
59170;BME280;52474;52.236;5.114;2022-08-21T01:24:32;101731.50;;;13.13;100.00
59170;BME280;52474;52.236;5.114;2022-08-21T01:26:58;101735.00;;;13.14;100.00
59170;BME280;52474;52.236;5.114;2022-08-21T01:31:52;101733.69;;;13.08;100.00
59170;BME280;52474;52.236;5.114;2022-08-21T01:34:18;101737.56;;;13.04;100.00
59170;BME280;52474;52.236;5.114;2022-08-21T01:36:44;101735.91;;;13.03;100.00
59170;BME280;52474;52.236;5.114;2022-08-21T01:39:10;101728.19;;;13.00;100.00
59170;BME280;52474;52.236;5.114;2022-08-21T01:41:36;101732.50;;;13.01;100.00
59170;BME280;52474;52.236;5.114;2022-08-21T01:44:01;101729.28;;;12.97;100.00
59170;BME280;52474;52.236;5.114;2022-08-21T01:46:27;101731.94;;;12.97;100.00
59170;BME280;52474;52.236;5.114;2022-08-21T01:48:52;101720.78;;;13.03;100.00
59170;BME280;52474;52.236;5.114;2022-08-21T01:51:18;101718.13;;;13.03;100.00
59170;BME280;52474;52.236;5.114;2022-08-21T01:53:43;101719.09;;;13.02;100.00
59170;BME280;52474;52.236;5.114;2022-08-21T01:56:10;101721.75;;;13.02;100.00
59170;BME280;52474;52.236;5.114;2022-08-21T01:58:37;101716.66;;;12.99;100.00
59170;BME280;52474;52.236;5.114;2022-08-21T02:01:03;101714.88;;;13.00;100.00
59170;BME280;52474;52.236;5.114;2022-08-21T02:03:29;101708.22;;;12.94;100.00
59170;BME280;52474;52.236;5.114;2022-08-21T02:05:54;101709.69;;;12.87;100.00
59170;BME280;52474;52.236;5.114;2022-08-21T02:08:20;101705.47;;;12.84;100.00
59170;BME280;52474;52.236;5.114;2022-08-21T02:10:49;101704.78;;;12.82;100.00
59170;BME280;52474;52.236;5.114;2022-08-21T02:13:15;101709.94;;;12.84;100.00
59170;BME280;52474;52.236;5.114;2022-08-21T02:15:41;101706.34;;;12.85;100.00
59170;BME280;52474;52.236;5.114;2022-08-21T02:18:06;101710.09;;;12.82;100.00
59170;BME280;52474;52.236;5.114;2022-08-21T02:20:33;101711.88;;;12.82;100.00
59170;BME280;52474;52.236;5.114;2022-08-21T02:22:59;101709.00;;;12.74;100.00
59170;BME280;52474;52.236;5.114;2022-08-21T02:25:26;101705.16;;;12.66;100.00
59170;BME280;52474;52.236;5.114;2022-08-21T02:27:52;101710.59;;;12.65;100.00
59170;BME280;52474;52.236;5.114;2022-08-21T02:30:19;101709.16;;;12.61;100.00
59170;BME280;52474;52.236;5.114;2022-08-21T02:32:45;101696.72;;;12.61;100.00
59170;BME280;52474;52.236;5.114;2022-08-21T02:35:10;101698.53;;;12.61;100.00
59170;BME280;52474;52.236;5.114;2022-08-21T02:37:44;101702.13;;;12.60;100.00
59170;BME280;52474;52.236;5.114;2022-08-21T02:40:10;101701.44;;;12.58;100.00
59170;BME280;52474;52.236;5.114;2022-08-21T02:42:36;101694.41;;;12.57;100.00
59170;BME280;52474;52.236;5.114;2022-08-21T02:45:02;101694.31;;;12.58;100.00
59170;BME280;52474;52.236;5.114;2022-08-21T02:47:28;101698.16;;;12.65;100.00
59170;BME280;52474;52.236;5.114;2022-08-21T02:49:53;101698.75;;;12.69;100.00
59170;BME280;52474;52.236;5.114;2022-08-21T02:52:19;101700.94;;;12.75;100.00
59170;BME280;52474;52.236;5.114;2022-08-21T02:54:44;101698.84;;;12.79;100.00
59170;BME280;52474;52.236;5.114;2022-08-21T02:57:10;101689.41;;;12.75;100.00
59170;BME280;52474;52.236;5.114;2022-08-21T02:59:35;101689.69;;;12.72;100.00
59170;BME280;52474;52.236;5.114;2022-08-21T03:02:01;101698.03;;;12.67;100.00
59170;BME280;52474;52.236;5.114;2022-08-21T03:04:27;101687.53;;;12.65;100.00
59170;BME280;52474;52.236;5.114;2022-08-21T03:06:52;101684.25;;;12.62;100.00
59170;BME280;52474;52.236;5.114;2022-08-21T03:09:18;101685.09;;;12.62;100.00
59170;BME280;52474;52.236;5.114;2022-08-21T03:11:43;101692.25;;;12.62;100.00
59170;BME280;52474;52.236;5.114;2022-08-21T03:14:09;101688.84;;;12.60;100.00
59170;BME280;52474;52.236;5.114;2022-08-21T03:16:34;101684.16;;;12.52;100.00
59170;BME280;52474;52.236;5.114;2022-08-21T03:19:00;101681.75;;;12.38;100.00
59170;BME280;52474;52.236;5.114;2022-08-21T03:21:26;101674.28;;;12.32;100.00
59170;BME280;52474;52.236;5.114;2022-08-21T03:23:53;101673.09;;;12.24;100.00
59170;BME280;52474;52.236;5.114;2022-08-21T03:26:19;101666.22;;;12.22;100.00
59170;BME280;52474;52.236;5.114;2022-08-21T03:28:44;101678.13;;;12.28;100.00
59170;BME280;52474;52.236;5.114;2022-08-21T03:31:10;101674.28;;;12.32;100.00
59170;BME280;52474;52.236;5.114;2022-08-21T03:33:35;101667.41;;;12.29;100.00
59170;BME280;52474;52.236;5.114;2022-08-21T03:36:03;101674.28;;;12.32;100.00
59170;BME280;52474;52.236;5.114;2022-08-21T03:38:29;101669.44;;;12.37;100.00
59170;BME280;52474;52.236;5.114;2022-08-21T03:40:55;101675.84;;;12.45;100.00
59170;BME280;52474;52.236;5.114;2022-08-21T03:43:21;101667.88;;;12.45;100.00
59170;BME280;52474;52.236;5.114;2022-08-21T03:45:46;101661.72;;;12.34;100.00
59170;BME280;52474;52.236;5.114;2022-08-21T03:48:12;101658.47;;;12.30;100.00
59170;BME280;52474;52.236;5.114;2022-08-21T03:50:40;101657.88;;;12.27;100.00
59170;BME280;52474;52.236;5.114;2022-08-21T03:53:06;101657.50;;;12.31;100.00
59170;BME280;52474;52.236;5.114;2022-08-21T03:55:32;101660.91;;;12.33;100.00
59170;BME280;52474;52.236;5.114;2022-08-21T03:57:58;101653.78;;;12.34;100.00
59170;BME280;52474;52.236;5.114;2022-08-21T04:00:24;101653.63;;;12.35;100.00
59170;BME280;52474;52.236;5.114;2022-08-21T04:02:49;101656.69;;;12.31;100.00
59170;BME280;52474;52.236;5.114;2022-08-21T04:05:16;101656.91;;;12.28;100.00
59170;BME280;52474;52.236;5.114;2022-08-21T04:08:02;101656.16;;;12.25;100.00
59170;BME280;52474;52.236;5.114;2022-08-21T04:10:30;101654.75;;;12.21;100.00
59170;BME280;52474;52.236;5.114;2022-08-21T04:12:56;101659.44;;;12.18;100.00
59170;BME280;52474;52.236;5.114;2022-08-21T04:15:22;101664.63;;;12.19;100.00
59170;BME280;52474;52.236;5.114;2022-08-21T04:17:48;101662.72;;;12.21;100.00
59170;BME280;52474;52.236;5.114;2022-08-21T04:20:15;101668.38;;;12.17;100.00
59170;BME280;52474;52.236;5.114;2022-08-21T04:22:41;101673.19;;;12.23;100.00
59170;BME280;52474;52.236;5.114;2022-08-21T04:25:06;101672.59;;;12.31;100.00
59170;BME280;52474;52.236;5.114;2022-08-21T04:27:33;101675.50;;;12.39;100.00
59170;BME280;52474;52.236;5.114;2022-08-21T04:29:58;101677.63;;;12.45;100.00
59170;BME280;52474;52.236;5.114;2022-08-21T04:32:25;101670.28;;;12.49;100.00
59170;BME280;52474;52.236;5.114;2022-08-21T04:34:58;101677.28;;;12.50;100.00
59170;BME280;52474;52.236;5.114;2022-08-21T04:37:23;101671.97;;;12.50;100.00
59170;BME280;52474;52.236;5.114;2022-08-21T04:39:49;101678.25;;;12.49;100.00
59170;BME280;52474;52.236;5.114;2022-08-21T04:42:15;101683.69;;;12.47;100.00
59170;BME280;52474;52.236;5.114;2022-08-21T04:44:41;101685.63;;;12.45;100.00
59170;BME280;52474;52.236;5.114;2022-08-21T04:47:06;101692.75;;;12.44;100.00
59170;BME280;52474;52.236;5.114;2022-08-21T04:49:32;101688.53;;;12.42;100.00
59170;BME280;52474;52.236;5.114;2022-08-21T04:51:58;101694.44;;;12.45;100.00
59170;BME280;52474;52.236;5.114;2022-08-21T04:54:23;101682.84;;;12.46;100.00
59170;BME280;52474;52.236;5.114;2022-08-21T04:56:53;101694.06;;;12.50;100.00
59170;BME280;52474;52.236;5.114;2022-08-21T04:59:21;101688.28;;;12.45;100.00
59170;BME280;52474;52.236;5.114;2022-08-21T05:01:47;101691.78;;;12.45;100.00
59170;BME280;52474;52.236;5.114;2022-08-21T05:04:15;101689.47;;;12.52;100.00
59170;BME280;52474;52.236;5.114;2022-08-21T05:06:42;101690.81;;;12.58;100.00
59170;BME280;52474;52.236;5.114;2022-08-21T05:09:09;101686.81;;;12.63;100.00
59170;BME280;52474;52.236;5.114;2022-08-21T05:11:37;101682.94;;;12.67;100.00
59170;BME280;52474;52.236;5.114;2022-08-21T05:14:02;101687.16;;;12.70;100.00
59170;BME280;52474;52.236;5.114;2022-08-21T05:16:28;101689.41;;;12.75;100.00
59170;BME280;52474;52.236;5.114;2022-08-21T05:18:54;101688.69;;;12.84;100.00
59170;BME280;52474;52.236;5.114;2022-08-21T05:21:19;101689.84;;;13.02;100.00
59170;BME280;52474;52.236;5.114;2022-08-21T05:23:46;101696.66;;;13.16;100.00
59170;BME280;52474;52.236;5.114;2022-08-21T05:26:11;101692.06;;;13.29;100.00
59170;BME280;52474;52.236;5.114;2022-08-21T05:28:37;101696.22;;;13.43;100.00
59170;BME280;52474;52.236;5.114;2022-08-21T05:31:02;101700.66;;;13.54;100.00
59170;BME280;52474;52.236;5.114;2022-08-21T05:33:28;101695.41;;;13.64;100.00
59170;BME280;52474;52.236;5.114;2022-08-21T05:35:54;101693.03;;;13.70;100.00
59170;BME280;52474;52.236;5.114;2022-08-21T05:38:26;101700.38;;;13.78;100.00
59170;BME280;52474;52.236;5.114;2022-08-21T05:40:53;101705.19;;;13.84;100.00
59170;BME280;52474;52.236;5.114;2022-08-21T05:43:19;101701.88;;;13.92;100.00
59170;BME280;52474;52.236;5.114;2022-08-21T05:45:44;101704.13;;;13.96;100.00
59170;BME280;52474;52.236;5.114;2022-08-21T05:48:11;101715.78;;;14.05;100.00
59170;BME280;52474;52.236;5.114;2022-08-21T05:50:37;101709.25;;;14.09;100.00
59170;BME280;52474;52.236;5.114;2022-08-21T05:53:03;101711.13;;;14.18;100.00
59170;BME280;52474;52.236;5.114;2022-08-21T05:55:29;101708.50;;;14.28;100.00
59170;BME280;52474;52.236;5.114;2022-08-21T05:57:54;101704.59;;;14.42;100.00
59170;BME280;52474;52.236;5.114;2022-08-21T06:00:20;101706.09;;;14.56;100.00
59170;BME280;52474;52.236;5.114;2022-08-21T06:02:48;101702.22;;;14.70;100.00
59170;BME280;52474;52.236;5.114;2022-08-21T06:05:16;101696.59;;;14.82;100.00
59170;BME280;52474;52.236;5.114;2022-08-21T06:07:41;101693.69;;;14.95;100.00
59170;BME280;52474;52.236;5.114;2022-08-21T06:10:07;101703.09;;;15.09;100.00
59170;BME280;52474;52.236;5.114;2022-08-21T06:12:32;101697.78;;;15.29;100.00
59170;BME280;52474;52.236;5.114;2022-08-21T06:14:58;101700.44;;;15.48;100.00
59170;BME280;52474;52.236;5.114;2022-08-21T06:17:24;101692.38;;;15.67;100.00
59170;BME280;52474;52.236;5.114;2022-08-21T06:19:52;101701.38;;;15.86;100.00
59170;BME280;52474;52.236;5.114;2022-08-21T06:22:18;101686.72;;;16.00;100.00
59170;BME280;52474;52.236;5.114;2022-08-21T06:24:44;101689.75;;;16.15;100.00
59170;BME280;52474;52.236;5.114;2022-08-21T06:27:09;101692.38;;;16.24;100.00
59170;BME280;52474;52.236;5.114;2022-08-21T06:29:35;101688.97;;;16.32;100.00
59170;BME280;52474;52.236;5.114;2022-08-21T06:32:01;101693.41;;;16.41;100.00
59170;BME280;52474;52.236;5.114;2022-08-21T06:34:26;101687.31;;;16.49;100.00
59170;BME280;52474;52.236;5.114;2022-08-21T06:36:52;101687.97;;;16.61;100.00
59170;BME280;52474;52.236;5.114;2022-08-21T06:39:17;101690.75;;;16.69;100.00
59170;BME280;52474;52.236;5.114;2022-08-21T06:41:43;101685.78;;;16.74;100.00
59170;BME280;52474;52.236;5.114;2022-08-21T06:44:09;101686.91;;;16.81;100.00
59170;BME280;52474;52.236;5.114;2022-08-21T06:46:34;101693.22;;;16.80;100.00
59170;BME280;52474;52.236;5.114;2022-08-21T06:49:00;101688.34;;;16.93;100.00
59170;BME280;52474;52.236;5.114;2022-08-21T06:51:26;101687.28;;;17.04;100.00
59170;BME280;52474;52.236;5.114;2022-08-21T06:53:52;101684.16;;;17.09;100.00
59170;BME280;52474;52.236;5.114;2022-08-21T06:56:18;101683.69;;;17.13;100.00
59170;BME280;52474;52.236;5.114;2022-08-21T06:58:43;101682.09;;;17.21;100.00
59170;BME280;52474;52.236;5.114;2022-08-21T07:01:09;101677.31;;;17.32;100.00
59170;BME280;52474;52.236;5.114;2022-08-21T07:03:36;101682.75;;;17.41;100.00
59170;BME280;52474;52.236;5.114;2022-08-21T07:06:02;101676.06;;;17.63;100.00
59170;BME280;52474;52.236;5.114;2022-08-21T07:08:28;101680.63;;;17.70;100.00
59170;BME280;52474;52.236;5.114;2022-08-21T07:10:55;101684.75;;;17.83;100.00
59170;BME280;52474;52.236;5.114;2022-08-21T07:13:21;101682.66;;;17.94;100.00
59170;BME280;52474;52.236;5.114;2022-08-21T07:15:47;101683.53;;;18.03;100.00
59170;BME280;52474;52.236;5.114;2022-08-21T07:18:12;101690.84;;;18.27;100.00
59170;BME280;52474;52.236;5.114;2022-08-21T07:20:38;101680.00;;;19.78;100.00
59170;BME280;52474;52.236;5.114;2022-08-21T07:23:08;101652.31;;;23.94;100.00
59170;BME280;52474;52.236;5.114;2022-08-21T07:25:34;101643.19;;;27.25;100.00
59170;BME280;52474;52.236;5.114;2022-08-21T07:27:59;101646.91;;;28.90;94.58
59170;BME280;52474;52.236;5.114;2022-08-21T07:30:25;101639.50;;;29.56;90.95
59170;BME280;52474;52.236;5.114;2022-08-21T07:32:51;101637.34;;;29.82;90.54
59170;BME280;52474;52.236;5.114;2022-08-21T07:35:17;101645.56;;;30.79;87.30
59170;BME280;52474;52.236;5.114;2022-08-21T07:37:43;101645.78;;;32.01;79.83
59170;BME280;52474;52.236;5.114;2022-08-21T07:40:08;101644.16;;;30.94;84.00
59170;BME280;52474;52.236;5.114;2022-08-21T07:42:34;101641.41;;;30.20;83.24
59170;BME280;52474;52.236;5.114;2022-08-21T07:44:59;101643.50;;;31.37;79.32
59170;BME280;52474;52.236;5.114;2022-08-21T07:47:25;101649.63;;;31.61;77.75
59170;BME280;52474;52.236;5.114;2022-08-21T07:49:50;101653.97;;;31.07;80.24
59170;BME280;52474;52.236;5.114;2022-08-21T07:52:16;101651.16;;;31.01;80.27
59170;BME280;52474;52.236;5.114;2022-08-21T07:54:41;101655.94;;;31.28;79.35
59170;BME280;52474;52.236;5.114;2022-08-21T07:57:07;101644.94;;;31.79;78.87
59170;BME280;52474;52.236;5.114;2022-08-21T07:59:33;101645.09;;;32.60;71.88
59170;BME280;52474;52.236;5.114;2022-08-21T08:01:58;101630.84;;;32.96;69.85
59170;BME280;52474;52.236;5.114;2022-08-21T08:04:24;101628.19;;;32.19;70.62
59170;BME280;52474;52.236;5.114;2022-08-21T08:06:49;101626.44;;;31.47;72.74
59170;BME280;52474;52.236;5.114;2022-08-21T08:09:15;101636.19;;;31.82;75.88
59170;BME280;52474;52.236;5.114;2022-08-21T08:11:42;101633.56;;;28.82;84.97
59170;BME280;52474;52.236;5.114;2022-08-21T08:14:09;101639.84;;;29.36;87.02
59170;BME280;52474;52.236;5.114;2022-08-21T08:16:35;101641.41;;;33.04;75.20
59170;BME280;52474;52.236;5.114;2022-08-21T08:19:00;101643.00;;;32.45;70.71
59170;BME280;52474;52.236;5.114;2022-08-21T08:21:26;101635.56;;;31.75;79.15
59170;BME280;52474;52.236;5.114;2022-08-21T08:23:51;101634.72;;;33.74;66.17
59170;BME280;52474;52.236;5.114;2022-08-21T08:26:17;101635.59;;;32.46;67.20
59170;BME280;52474;52.236;5.114;2022-08-21T08:28:43;101635.75;;;28.50;85.07
59170;BME280;52474;52.236;5.114;2022-08-21T08:31:09;101633.78;;;31.63;78.99
59170;BME280;52474;52.236;5.114;2022-08-21T08:33:34;101629.50;;;34.51;63.29
59170;BME280;52474;52.236;5.114;2022-08-21T08:36:00;101639.53;;;32.28;75.44
59170;BME280;52474;52.236;5.114;2022-08-21T08:38:26;101626.22;;;31.71;75.77
59170;BME280;52474;52.236;5.114;2022-08-21T08:40:54;101625.19;;;28.83;87.78
59170;BME280;52474;52.236;5.114;2022-08-21T08:43:25;101629.41;;;29.45;87.69
59170;BME280;52474;52.236;5.114;2022-08-21T08:45:51;101619.00;;;34.38;64.23
59170;BME280;52474;52.236;5.114;2022-08-21T08:48:26;101617.75;;;30.83;75.94
59170;BME280;52474;52.236;5.114;2022-08-21T08:50:57;101624.59;;;25.35;100.00
59170;BME280;52474;52.236;5.114;2022-08-21T08:53:32;101622.78;;;30.91;85.54
59170;BME280;52474;52.236;5.114;2022-08-21T08:55:58;101620.19;;;32.13;77.83
59170;BME280;52474;52.236;5.114;2022-08-21T08:58:30;101614.59;;;32.52;73.66
59170;BME280;52474;52.236;5.114;2022-08-21T09:00:56;101613.28;;;32.59;70.33
59170;BME280;52474;52.236;5.114;2022-08-21T09:03:25;101619.34;;;33.26;72.69
59170;BME280;52474;52.236;5.114;2022-08-21T09:06:03;101616.97;;;31.77;75.07
59170;BME280;52474;52.236;5.114;2022-08-21T09:08:36;101612.00;;;30.67;82.04
59170;BME280;52474;52.236;5.114;2022-08-21T09:11:11;101609.38;;;34.46;66.89
59170;BME280;52474;52.236;5.114;2022-08-21T09:13:43;101617.41;;;34.78;61.89
59170;BME280;52474;52.236;5.114;2022-08-21T09:21:30;101613.25;;;32.86;67.41
59170;BME280;52474;52.236;5.114;2022-08-21T09:26:40;101624.91;;;27.32;96.65
59170;BME280;52474;52.236;5.114;2022-08-21T09:29:10;101616.09;;;27.74;97.47
59170;BME280;52474;52.236;5.114;2022-08-21T09:31:36;101620.97;;;26.33;100.00
59170;BME280;52474;52.236;5.114;2022-08-21T09:34:06;101622.03;;;30.21;89.97
59170;BME280;52474;52.236;5.114;2022-08-21T09:38:59;101612.53;;;30.24;83.51
59170;BME280;52474;52.236;5.114;2022-08-21T09:41:28;101623.06;;;27.01;96.96
59170;BME280;52474;52.236;5.114;2022-08-21T09:43:56;101613.84;;;29.57;86.40
59170;BME280;52474;52.236;5.114;2022-08-21T09:46:23;101615.13;;;28.23;92.11
59170;BME280;52474;52.236;5.114;2022-08-21T09:48:50;101614.00;;;30.43;82.51
59170;BME280;52474;52.236;5.114;2022-08-21T09:51:20;101607.09;;;30.12;81.20
59170;BME280;52474;52.236;5.114;2022-08-21T09:54:30;101618.31;;;26.90;100.00
59170;BME280;52474;52.236;5.114;2022-08-21T09:56:37;101603.91;;;27.14;99.58
59170;BME280;52474;52.236;5.114;2022-08-21T10:01:50;101606.41;;;31.63;76.58
59170;BME280;52474;52.236;5.114;2022-08-21T10:04:19;101608.84;;;29.89;82.16
59170;BME280;52474;52.236;5.114;2022-08-21T10:06:45;101614.28;;;31.04;81.30
59170;BME280;52474;52.236;5.114;2022-08-21T10:09:15;101611.13;;;33.31;68.35
59170;BME280;52474;52.236;5.114;2022-08-21T10:11:43;101608.25;;;29.87;82.87
59170;BME280;52474;52.236;5.114;2022-08-21T10:21:39;101604.44;;;28.94;85.56
59170;BME280;52474;52.236;5.114;2022-08-21T10:39:35;101611.16;;;25.67;100.00
59170;BME280;52474;52.236;5.114;2022-08-21T10:47:04;101602.47;;;25.38;100.00
59170;BME280;52474;52.236;5.114;2022-08-21T10:55:15;101596.03;;;30.30;83.71
59170;BME280;52474;52.236;5.114;2022-08-21T10:57:37;101588.16;;;30.05;82.13
59170;BME280;52474;52.236;5.114;2022-08-21T11:00:10;101590.78;;;31.64;77.79
59170;BME280;52474;52.236;5.114;2022-08-21T11:02:39;101591.81;;;32.83;65.20
59170;BME280;52474;52.236;5.114;2022-08-21T11:05:25;101593.00;;;33.35;62.23
59170;BME280;52474;52.236;5.114;2022-08-21T11:08:10;101594.84;;;33.67;60.55
59170;BME280;52474;52.236;5.114;2022-08-21T11:10:39;101585.09;;;34.02;57.42
59170;BME280;52474;52.236;5.114;2022-08-21T11:13:11;101594.84;;;35.06;56.22
59170;BME280;52474;52.236;5.114;2022-08-21T11:15:52;101585.06;;;31.87;59.46
59170;BME280;52474;52.236;5.114;2022-08-21T11:21:20;101588.53;;;28.67;80.26
59170;BME280;52474;52.236;5.114;2022-08-21T11:23:43;101586.19;;;27.37;84.91
59170;BME280;52474;52.236;5.114;2022-08-21T11:26:15;101598.75;;;26.43;94.56
59170;BME280;52474;52.236;5.114;2022-08-21T11:28:45;101597.56;;;26.39;95.31
59170;BME280;52474;52.236;5.114;2022-08-21T11:31:17;101598.19;;;26.34;96.87
59170;BME280;52474;52.236;5.114;2022-08-21T11:34:01;101605.97;;;26.94;92.96
59170;BME280;52474;52.236;5.114;2022-08-21T11:39:16;101597.63;;;28.61;85.00
59170;BME280;52474;52.236;5.114;2022-08-21T11:41:52;101601.22;;;27.58;88.64
59170;BME280;52474;52.236;5.114;2022-08-21T11:47:14;101601.13;;;28.50;83.94
59170;BME280;52474;52.236;5.114;2022-08-21T11:49:49;101609.88;;;28.40;84.49
59170;BME280;52474;52.236;5.114;2022-08-21T12:02:39;101605.75;;;31.95;63.22
59170;BME280;52474;52.236;5.114;2022-08-21T12:05:08;101606.75;;;33.35;60.22
59170;BME280;52474;52.236;5.114;2022-08-21T12:07:36;101609.03;;;31.19;66.42
59170;BME280;52474;52.236;5.114;2022-08-21T12:10:04;101604.91;;;28.91;73.11
59170;BME280;52474;52.236;5.114;2022-08-21T12:12:33;101607.41;;;27.65;79.86
59170;BME280;52474;52.236;5.114;2022-08-21T12:17:55;101610.91;;;26.79;87.64
59170;BME280;52474;52.236;5.114;2022-08-21T12:22:54;101612.75;;;31.13;71.31
59170;BME280;52474;52.236;5.114;2022-08-21T12:25:20;101609.03;;;31.75;64.72
59170;BME280;52474;52.236;5.114;2022-08-21T12:27:47;101605.41;;;31.14;67.44
59170;BME280;52474;52.236;5.114;2022-08-21T12:30:35;101608.53;;;29.39;76.61
59170;BME280;52474;52.236;5.114;2022-08-21T12:33:06;101616.00;;;29.08;77.83
59170;BME280;52474;52.236;5.114;2022-08-21T12:35:42;101615.59;;;30.56;71.12
59170;BME280;52474;52.236;5.114;2022-08-21T12:38:12;101600.16;;;31.29;69.16
59170;BME280;52474;52.236;5.114;2022-08-21T12:40:49;101615.75;;;31.12;69.74
59170;BME280;52474;52.236;5.114;2022-08-21T12:43:18;101624.88;;;31.00;66.04
59170;BME280;52474;52.236;5.114;2022-08-21T12:45:48;101606.38;;;30.16;68.11
59170;BME280;52474;52.236;5.114;2022-08-21T12:48:26;101612.06;;;30.15;70.30
59170;BME280;52474;52.236;5.114;2022-08-21T12:50:58;101620.97;;;31.13;70.08
59170;BME280;52474;52.236;5.114;2022-08-21T12:56:03;101627.19;;;27.35;82.25
59170;BME280;52474;52.236;5.114;2022-08-21T12:58:34;101627.66;;;27.01;86.38
59170;BME280;52474;52.236;5.114;2022-08-21T13:01:03;101616.84;;;29.32;79.90
59170;BME280;52474;52.236;5.114;2022-08-21T13:03:29;101623.59;;;29.53;72.82
59170;BME280;52474;52.236;5.114;2022-08-21T13:05:56;101619.34;;;28.68;81.13
59170;BME280;52474;52.236;5.114;2022-08-21T13:08:22;101627.22;;;27.72;82.94
59170;BME280;52474;52.236;5.114;2022-08-21T13:10:55;101620.72;;;28.29;80.35
59170;BME280;52474;52.236;5.114;2022-08-21T13:13:22;101625.94;;;29.14;75.50
59170;BME280;52474;52.236;5.114;2022-08-21T13:15:49;101625.97;;;27.93;79.23
59170;BME280;52474;52.236;5.114;2022-08-21T13:18:22;101625.50;;;27.34;81.86
59170;BME280;52474;52.236;5.114;2022-08-21T13:20:48;101622.84;;;28.26;82.84
59170;BME280;52474;52.236;5.114;2022-08-21T13:23:23;101621.06;;;28.32;80.49
59170;BME280;52474;52.236;5.114;2022-08-21T13:25:48;101622.41;;;27.74;82.89
59170;BME280;52474;52.236;5.114;2022-08-21T13:28:14;101628.19;;;26.84;86.95
59170;BME280;52474;52.236;5.114;2022-08-21T13:30:45;101626.09;;;26.86;89.07
59170;BME280;52474;52.236;5.114;2022-08-21T13:33:12;101627.16;;;26.53;90.16
59170;BME280;52474;52.236;5.114;2022-08-21T13:38:18;101620.31;;;28.85;79.81
59170;BME280;52474;52.236;5.114;2022-08-21T13:40:46;101623.59;;;29.06;78.22
59170;BME280;52474;52.236;5.114;2022-08-21T13:43:14;101621.91;;;28.33;81.14
59170;BME280;52474;52.236;5.114;2022-08-21T13:45:42;101624.63;;;28.33;78.65
59170;BME280;52474;52.236;5.114;2022-08-21T13:48:08;101619.53;;;27.88;81.28
59170;BME280;52474;52.236;5.114;2022-08-21T13:50:34;101623.59;;;27.60;83.04
59170;BME280;52474;52.236;5.114;2022-08-21T13:53:02;101625.50;;;27.09;81.89
59170;BME280;52474;52.236;5.114;2022-08-21T13:55:39;101621.25;;;27.20;85.18
59170;BME280;52474;52.236;5.114;2022-08-21T13:58:05;101627.22;;;27.04;87.44
59170;BME280;52474;52.236;5.114;2022-08-21T14:00:32;101622.44;;;26.99;89.55
59170;BME280;52474;52.236;5.114;2022-08-21T14:03:03;101618.16;;;27.10;86.97